Archival Weather

Aeroparque Jorge Newbery

Buenos Aires, Argentina (SABE)

Report from: Thursday, September 21, 2023 1:00 AM -03
Current time: Friday, July 19, 2024 12:20 AM -03

Current weather – Weather history – Daily summaries
Weather forecast

Present weatherLight drizzle, mist
Temperature16.0°C (60.8°F)
Dew point15.0°C (59.0°F)
Winds 10 kts (5.1 m/s, 11.5 mph) East (100°)
Visibility3280.8 ft. (1 km)
Clouds Ceiling: Overcast 200 ft. (61 m)
Altimeter29.88 in.Hg (1012 mB)
Relative humidity94 %
Density altitude396 ft. (121 m)
Remarks No significant changes expected in the next two hours
Flight conditions Low Instrument Meteorological Conditions
Raw dataSABE 210400Z 10010KT 1000 R13/P2000N -DZ BR OVC002 16/15 Q1012 NOSIG RMK PP999
An error has occurred. This application may no longer respond until reloaded. Reload 🗙